Time;durP1;ratioP1;P1;durP2;ratioP2;P2;SDS_P1;SDS_P2;PMS_P1;PMS_P2;Temp;Humidity;BMP_temperature;BMP_pressure;BME280_temperature;BME280_humidity;BME280_pressure;Samples;Min_cycle;Max_cycle;Signal;HPM_P1;HPM_P2
2022/11/28 00:01:22;;;;;;;29.20;16.67;;;6.10;99.90;;;;;;6186378;23;20017;-82
2022/11/28 00:03:47;;;;;;;31.55;16.90;;;6.00;99.90;;;;;;6159747;23;20013;-82
2022/11/28 00:06:14;;;;;;;32.92;17.00;;;6.00;99.90;;;;;;6186156;23;20450;-82
2022/11/28 00:08:39;;;;;;;31.55;16.27;;;6.00;99.90;;;;;;6185901;23;20013;-82
2022/11/28 00:11:07;;;;;;;29.15;15.15;;;6.00;99.90;;;;;;6159709;23;20028;-81
2022/11/28 00:13:33;;;;;;;27.70;15.27;;;6.00;99.90;;;;;;6187092;23;20017;-82
2022/11/28 00:16:01;;;;;;;30.23;16.25;;;6.00;99.90;;;;;;6185957;23;20045;-82
2022/11/28 00:18:27;;;;;;;30.85;16.45;;;6.00;99.90;;;;;;6186290;23;20013;-81
2022/11/28 00:21:01;;;;;;;27.13;16.10;;;6.00;99.90;;;;;;6159574;23;20024;-82
2022/11/28 00:23:27;;;;;;;34.03;17.55;;;6.00;99.90;;;;;;6185832;23;20458;-82
2022/11/28 00:26:15;;;;;;;30.38;15.88;;;5.90;99.90;;;;;;6186282;23;20013;-82
2022/11/28 00:28:41;;;;;;;31.33;16.55;;;6.00;99.90;;;;;;6159521;23;20016;-82
2022/11/28 00:31:12;;;;;;;34.58;15.63;;;6.00;99.90;;;;;;6186224;23;20017;-82
2022/11/28 00:33:37;;;;;;;29.45;15.80;;;6.00;99.90;;;;;;6159580;23;20009;-82
2022/11/28 00:36:04;;;;;;;30.48;16.77;;;6.00;99.90;;;;;;6185835;23;20017;-82
2022/11/28 00:38:30;;;;;;;28.98;15.35;;;6.00;99.90;;;;;;6185825;23;20458;-82
2022/11/28 00:41:20;;;;;;;33.83;16.15;;;6.00;99.90;;;;;;6159518;23;20066;-82
2022/11/28 00:43:48;;;;;;;31.48;16.05;;;6.00;99.90;;;;;;6185846;23;20327;-82
2022/11/28 00:46:15;;;;;;;30.50;15.50;;;5.90;99.90;;;;;;6185817;23;20461;-82
2022/11/28 00:48:41;;;;;;;30.30;16.85;;;6.00;99.90;;;;;;6159334;23;20017;-82
2022/11/28 00:51:13;;;;;;;30.48;16.17;;;5.90;99.90;;;;;;6186111;23;20021;-82
2022/11/28 00:53:41;;;;;;;29.60;15.75;;;6.00;99.90;;;;;;6159572;23;20028;-82
2022/11/28 00:56:08;;;;;;;29.83;16.48;;;5.90;99.90;;;;;;6186116;23;20044;-82
2022/11/28 00:58:35;;;;;;;30.70;16.05;;;6.00;99.90;;;;;;6185786;23;20048;-82
2022/11/28 01:01:29;;;;;;;32.15;16.27;;;6.00;99.90;;;;;;6185692;23;20441;-82
2022/11/28 01:03:57;;;;;;;31.02;16.83;;;5.90;99.90;;;;;;6180271;23;20050;-82
2022/11/28 01:06:26;;;;;;;26.92;15.27;;;5.90;99.90;;;;;;6186092;23;20024;-82
2022/11/28 01:08:51;;;;;;;33.08;15.90;;;6.00;99.90;;;;;;6159238;23;20017;-82
2022/11/28 01:11:18;;;;;;;30.13;16.20;;;5.90;99.90;;;;;;6186063;23;20128;-82
2022/11/28 01:13:44;;;;;;;29.25;16.05;;;5.90;99.90;;;;;;6159483;23;20020;-82
2022/11/28 01:16:10;;;;;;;29.73;15.30;;;5.90;99.90;;;;;;6185674;23;20020;-82
2022/11/28 01:18:36;;;;;;;31.73;15.88;;;5.90;99.90;;;;;;6186432;23;20209;-82
2022/11/28 01:21:03;;;;;;;28.48;15.20;;;5.90;99.90;;;;;;6187462;23;20461;-82
2022/11/28 01:23:29;;;;;;;31.92;15.50;;;5.90;99.90;;;;;;6161175;23;20021;-82
2022/11/28 01:25:54;;;;;;;33.33;15.85;;;5.90;99.90;;;;;;6187777;23;20048;-82
2022/11/28 01:28:20;;;;;;;28.25;15.68;;;5.90;99.90;;;;;;6187374;23;20021;-81
2022/11/28 01:30:46;;;;;;;32.35;17.27;;;5.80;99.90;;;;;;6161191;23;20080;-82
2022/11/28 01:33:11;;;;;;;27.80;15.00;;;5.80;99.90;;;;;;6161187;23;20021;-82
2022/11/28 01:35:37;;;;;;;33.20;16.42;;;5.90;99.90;;;;;;6187756;23;20017;-82
2022/11/28 01:38:03;;;;;;;29.58;17.27;;;5.90;99.90;;;;;;6187706;23;20446;-82
2022/11/28 01:40:29;;;;;;;31.98;15.75;;;5.90;99.90;;;;;;6161023;23;20059;-82
2022/11/28 01:42:54;;;;;;;33.47;15.95;;;5.90;99.90;;;;;;6187674;23;20017;-82
2022/11/28 01:45:31;;;;;;;30.42;15.02;;;5.90;99.90;;;;;;6187283;23;20028;-82
2022/11/28 01:48:00;;;;;;;33.65;16.48;;;5.80;99.90;;;;;;6187636;23;20017;-81
2022/11/28 01:50:27;;;;;;;28.00;15.75;;;5.80;99.90;;;;;;6187593;23;20182;-82
2022/11/28 01:52:57;;;;;;;29.63;15.57;;;5.90;99.90;;;;;;6160850;23;20023;-82
2022/11/28 01:55:26;;;;;;;32.33;14.80;;;5.90;99.90;;;;;;6187560;23;20032;-82
2022/11/28 01:57:54;;;;;;;30.50;15.95;;;5.80;99.90;;;;;;6160854;23;20438;-82
2022/11/28 02:00:21;;;;;;;32.00;15.50;;;5.90;99.90;;;;;;6160781;23;20092;-82
2022/11/28 02:02:48;;;;;;;32.08;16.15;;;5.90;99.90;;;;;;6160787;23;20028;-82
2022/11/28 02:05:15;;;;;;;36.83;15.32;;;5.90;99.90;;;;;;6160693;23;20020;-82
2022/11/28 02:07:42;;;;;;;31.27;15.73;;;5.90;99.90;;;;;;6187049;23;20017;-82
2022/11/28 02:10:11;;;;;;;26.90;15.05;;;5.90;99.90;;;;;;6187332;23;20021;-82
2022/11/28 02:12:58;;;;;;;28.77;15.63;;;5.90;99.90;;;;;;6187369;23;20052;-82
2022/11/28 02:15:54;;;;;;;32.33;15.73;;;5.80;99.90;;;;;;6160437;23;20064;-80
2022/11/28 02:18:32;;;;;;;35.15;17.27;;;5.90;99.90;;;;;;6160613;23;20342;-82
2022/11/28 02:21:21;;;;;;;28.20;15.90;;;5.90;99.90;;;;;;6160610;23;20020;-82
2022/11/28 02:24:21;;;;;;;31.65;17.02;;;6.00;99.90;;;;;;6160582;23;20045;-82
2022/11/28 02:27:11;;;;;;;34.53;16.60;;;5.90;99.90;;;;;;6187293;23;20020;-82
2022/11/28 02:29:55;;;;;;;35.15;18.40;;;5.90;99.90;;;;;;6160287;23;20120;-82
2022/11/28 02:32:34;;;;;;;34.83;17.63;;;5.90;99.90;;;;;;6187174;23;20023;-81
2022/11/28 02:35:17;;;;;;;38.65;18.25;;;6.00;99.90;;;;;;6160555;23;20017;-82
2022/11/28 02:37:45;;;;;;;34.58;17.80;;;6.00;99.90;;;;;;6187188;23;20017;-81
2022/11/28 02:40:21;;;;;;;36.80;17.70;;;6.00;99.90;;;;;;6160485;23;20565;-81
2022/11/28 02:43:15;;;;;;;37.45;17.25;;;5.90;99.90;;;;;;6187000;23;20028;-81
2022/11/28 02:46:10;;;;;;;34.22;18.42;;;6.00;99.90;;;;;;6160355;23;20049;-81
2022/11/28 02:48:43;;;;;;;31.52;18.08;;;6.00;99.90;;;;;;6186627;23;20016;-81
2022/11/28 02:51:12;;;;;;;36.10;18.40;;;6.00;99.90;;;;;;6160334;23;20055;-81
2022/11/28 02:53:40;;;;;;;39.08;19.73;;;6.00;99.90;;;;;;6160296;23;20334;-81
2022/11/28 02:56:09;;;;;;;38.00;18.60;;;6.00;99.90;;;;;;6160303;23;20021;-82
2022/11/28 02:58:35;;;;;;;43.33;20.35;;;6.10;99.90;;;;;;6187030;23;20017;-81
2022/11/28 03:01:02;;;;;;;37.20;19.13;;;6.10;99.90;;;;;;6160175;23;20033;-81
2022/11/28 03:03:45;;;;;;;41.70;20.08;;;6.10;99.90;;;;;;6160232;23;20318;-81
2022/11/28 03:06:26;;;;;;;38.28;21.38;;;6.10;99.90;;;;;;6186542;23;20405;-81
2022/11/28 03:09:04;;;;;;;42.45;22.48;;;6.10;99.90;;;;;;6160057;23;20017;-82
2022/11/28 03:12:02;;;;;;;42.97;21.90;;;6.10;99.90;;;;;;6186839;23;20021;-82
2022/11/28 03:14:49;;;;;;;41.83;21.83;;;6.10;99.90;;;;;;6160082;23;20099;-81
2022/11/28 03:17:36;;;;;;;45.75;21.63;;;6.10;99.90;;;;;;6154993;23;20018;-81
2022/11/28 03:20:29;;;;;;;38.80;20.58;;;6.10;99.90;;;;;;6156983;23;20105;-81
2022/11/28 03:23:13;;;;;;;44.47;23.15;;;6.20;99.90;;;;;;6130674;23;20096;-81
2022/11/28 03:25:57;;;;;;;47.08;22.65;;;6.20;99.90;;;;;;6130595;23;20143;-82
2022/11/28 03:28:30;;;;;;;49.15;21.90;;;6.10;99.90;;;;;;6156358;23;20338;-81
2022/11/28 03:30:58;;;;;;;46.03;22.27;;;6.20;99.90;;;;;;6156815;23;20021;-81
2022/11/28 03:33:29;;;;;;;45.42;22.67;;;6.30;99.90;;;;;;6156862;23;20013;-81
2022/11/28 03:36:11;;;;;;;48.92;25.73;;;6.30;99.90;;;;;;6156509;23;20053;-81
2022/11/28 03:38:41;;;;;;;54.90;27.55;;;6.30;99.90;;;;;;6130413;23;20345;-81
2022/11/28 03:41:13;;;;;;;53.35;26.35;;;6.30;99.90;;;;;;6130062;23;20362;-81
2022/11/28 03:43:45;;;;;;;53.65;25.13;;;6.30;99.90;;;;;;6130267;23;20017;-81
2022/11/28 03:46:15;;;;;;;48.58;25.85;;;6.30;99.90;;;;;;6130670;23;20018;-81
2022/11/28 03:48:55;;;;;;;56.03;28.52;;;6.30;99.90;;;;;;6156589;23;20029;-81
2022/11/28 03:51:26;;;;;;;53.38;26.27;;;6.30;99.90;;;;;;6130357;23;20064;-81
2022/11/28 03:54:07;;;;;;;54.67;27.20;;;6.30;99.90;;;;;;6156598;23;20040;-81
2022/11/28 03:56:58;;;;;;;57.22;28.30;;;6.30;99.90;;;;;;6156915;23;20105;-81
2022/11/28 03:59:31;;;;;;;61.20;28.13;;;6.30;99.90;;;;;;6156344;23;20393;-81
2022/11/28 04:02:20;;;;;;;58.53;27.13;;;6.30;99.90;;;;;;6156616;23;20047;-81
2022/11/28 04:05:06;;;;;;;57.33;29.70;;;6.30;99.90;;;;;;6130248;23;20022;-81
2022/11/28 04:08:04;;;;;;;64.38;30.40;;;6.30;99.90;;;;;;6156274;23;20455;-81
2022/11/28 04:10:40;;;;;;;58.58;27.23;;;6.30;99.90;;;;;;6130050;23;20446;-81
2022/11/28 04:13:19;;;;;;;54.92;28.27;;;6.40;99.90;;;;;;6156865;23;20021;-81
2022/11/28 04:16:20;;;;;;;55.72;26.73;;;6.30;99.90;;;;;;6135691;23;20009;-81
2022/11/28 04:18:56;;;;;;;60.15;30.73;;;6.30;99.90;;;;;;6175168;23;20453;-81
2022/11/28 04:21:38;;;;;;;59.60;27.80;;;6.40;99.90;;;;;;6186315;23;20013;-81
2022/11/28 04:24:11;;;;;;;59.80;28.27;;;6.40;99.90;;;;;;6159589;23;20434;-82
2022/11/28 04:26:47;;;;;;;51.35;27.00;;;6.40;99.90;;;;;;6185921;23;20495;-82
2022/11/28 04:29:19;;;;;;;50.55;26.40;;;6.40;99.90;;;;;;6185902;23;20044;-81
2022/11/28 04:31:49;;;;;;;50.17;26.95;;;6.40;99.90;;;;;;6185915;23;20516;-81
2022/11/28 04:34:19;;;;;;;49.90;26.73;;;6.30;99.90;;;;;;6159519;23;20104;-82
2022/11/28 04:36:45;;;;;;;52.50;26.88;;;6.40;99.90;;;;;;6185802;23;20441;-82
2022/11/28 04:39:31;;;;;;;53.38;26.67;;;6.40;99.90;;;;;;6185855;23;20021;-81
2022/11/28 04:42:05;;;;;;;55.45;27.55;;;6.40;99.90;;;;;;6159511;23;20025;-82
2022/11/28 04:44:46;;;;;;;53.58;25.23;;;6.50;99.90;;;;;;6159597;23;20113;-81
2022/11/28 04:47:11;;;;;;;52.38;25.60;;;6.50;99.90;;;;;;6186197;23;20468;-81
2022/11/28 04:49:38;;;;;;;50.03;25.23;;;6.50;99.90;;;;;;6185745;23;20021;-81
2022/11/28 04:52:18;;;;;;;56.25;26.33;;;6.50;99.90;;;;;;6159481;23;20017;-82
2022/11/28 04:55:07;;;;;;;52.63;24.27;;;6.50;99.90;;;;;;6161572;23;20025;-81
2022/11/28 04:58:01;;;;;;;52.67;25.05;;;6.50;99.90;;;;;;6161488;23;20013;-82
2022/11/28 05:00:26;;;;;;;;;;;6.60;99.90;;;;;;6187458;23;20087;-82
2022/11/28 05:02:53;;;;;;;54.47;25.27;;;6.50;99.90;;;;;;6161381;23;19916;-81
2022/11/28 05:05:23;;;;;;;54.25;26.45;;;6.60;99.90;;;;;;6188043;23;20019;-81
2022/11/28 05:07:48;;;;;;;56.38;26.75;;;6.60;99.90;;;;;;6161871;23;20017;-82
2022/11/28 05:10:15;;;;;;;54.63;26.13;;;6.60;99.90;;;;;;6161181;23;20021;-82
2022/11/28 05:12:41;;;;;;;57.92;25.27;;;6.60;99.90;;;;;;6187860;23;20064;-82
2022/11/28 05:15:08;;;;;;;54.90;25.33;;;6.60;99.90;;;;;;6187822;23;20021;-82
2022/11/28 05:17:34;;;;;;;54.40;25.35;;;6.60;99.90;;;;;;6187341;23;20020;-82
2022/11/28 05:20:00;;;;;;;53.45;25.23;;;6.60;99.90;;;;;;6187839;23;20088;-82
2022/11/28 05:22:26;;;;;;;49.75;23.58;;;6.60;99.90;;;;;;6187891;23;20040;-81
2022/11/28 05:24:51;;;;;;;48.53;25.38;;;6.70;99.90;;;;;;6187411;23;20017;-81
2022/11/28 05:27:17;;;;;;;47.70;22.38;;;6.60;99.90;;;;;;6187499;23;20100;-82
2022/11/28 05:29:45;;;;;;;50.38;25.30;;;6.70;99.90;;;;;;6187684;23;20017;-82
2022/11/28 05:32:12;;;;;;;49.20;23.73;;;6.70;99.90;;;;;;6187760;23;20013;-81
2022/11/28 05:34:38;;;;;;;50.15;23.13;;;6.70;99.90;;;;;;6187771;23;20021;-82
2022/11/28 05:37:05;;;;;;;41.33;20.90;;;6.70;99.90;;;;;;6161155;23;20017;-82
2022/11/28 05:39:31;;;;;;;51.30;23.70;;;6.70;99.90;;;;;;6161025;23;20322;-82
2022/11/28 05:41:57;;;;;;;46.10;21.15;;;6.70;99.90;;;;;;6187367;23;20021;-82
2022/11/28 05:44:23;;;;;;;47.90;23.83;;;6.80;99.90;;;;;;6187293;23;20017;-82
2022/11/28 05:46:49;;;;;;;40.25;20.38;;;6.70;99.90;;;;;;6160945;23;20021;-82
2022/11/28 05:49:15;;;;;;;47.63;21.48;;;6.80;99.90;;;;;;6187231;23;20079;-82
2022/11/28 05:51:40;;;;;;;47.38;21.60;;;6.80;99.90;;;;;;6160880;23;20013;-82
2022/11/28 05:54:06;;;;;;;53.38;21.65;;;6.80;99.90;;;;;;6187525;23;20083;-82
2022/11/28 05:56:32;;;;;;;47.13;22.05;;;6.90;99.90;;;;;;6187550;23;20504;-83
2022/11/28 05:58:57;;;;;;;41.20;20.17;;;6.90;99.90;;;;;;6187155;23;20021;-83
2022/11/28 06:01:27;;;;;;;39.28;19.40;;;6.90;99.90;;;;;;6187176;23;20017;-83
2022/11/28 06:03:58;;;;;;;42.58;19.20;;;6.90;99.90;;;;;;6187215;23;20084;-83
2022/11/28 06:06:29;;;;;;;45.45;20.23;;;6.90;99.90;;;;;;6187121;23;20104;-83
2022/11/28 06:08:55;;;;;;;36.72;17.27;;;6.90;99.90;;;;;;6187428;23;20024;-83
2022/11/28 06:11:23;;;;;;;43.00;18.15;;;7.00;99.90;;;;;;6187051;23;20484;-83
2022/11/28 06:13:49;;;;;;;40.17;16.88;;;7.00;99.90;;;;;;6160734;23;20017;-83
2022/11/28 06:16:18;;;;;;;42.08;17.65;;;7.00;99.90;;;;;;6187013;23;20028;-83
2022/11/28 06:18:44;;;;;;;37.45;18.65;;;7.00;99.90;;;;;;6187340;23;20025;-82
2022/11/28 06:21:11;;;;;;;38.03;17.67;;;7.00;99.90;;;;;;6160529;23;20013;-83
2022/11/28 06:23:37;;;;;;;36.92;17.65;;;7.00;99.90;;;;;;6186996;23;20457;-83
2022/11/28 06:26:08;;;;;;;36.92;17.52;;;7.00;99.90;;;;;;6160558;23;20338;-83
2022/11/28 06:28:34;;;;;;;34.03;16.30;;;7.00;99.90;;;;;;6186915;23;20110;-83
2022/11/28 06:31:00;;;;;;;35.10;16.77;;;7.10;99.90;;;;;;6187228;23;20068;-82
2022/11/28 06:33:26;;;;;;;35.85;16.45;;;7.10;99.90;;;;;;6187188;23;20016;-83
2022/11/28 06:35:57;;;;;;;35.45;14.90;;;7.10;99.90;;;;;;6187209;23;20511;-83
2022/11/28 06:38:23;;;;;;;33.67;14.60;;;7.10;99.90;;;;;;6160471;23;20021;-83
2022/11/28 06:40:48;;;;;;;35.92;16.45;;;7.10;99.90;;;;;;6160489;23;20021;-82
2022/11/28 06:43:14;;;;;;;37.45;16.05;;;7.10;99.90;;;;;;6186740;23;20017;-82
2022/11/28 06:45:40;;;;;;;32.15;15.38;;;7.10;99.90;;;;;;6160385;23;20441;-82
2022/11/28 06:48:05;;;;;;;34.40;15.57;;;7.10;99.90;;;;;;6186790;23;20024;-83
2022/11/28 06:50:31;;;;;;;32.25;16.50;;;7.10;99.90;;;;;;6160320;23;20031;-83
2022/11/28 06:52:57;;;;;;;32.08;15.27;;;7.10;99.90;;;;;;6187077;23;20474;-82
2022/11/28 06:55:22;;;;;;;30.40;14.45;;;7.20;99.90;;;;;;6186648;23;20028;-82
2022/11/28 06:57:48;;;;;;;36.53;16.27;;;7.20;99.90;;;;;;6186999;23;20113;-82
2022/11/28 07:00:14;;;;;;;34.53;16.25;;;7.10;99.90;;;;;;6186926;23;20013;-82
2022/11/28 07:02:40;;;;;;;36.83;15.23;;;7.10;99.90;;;;;;6186611;23;20389;-82
2022/11/28 07:05:06;;;;;;;32.22;15.05;;;7.10;99.90;;;;;;6186569;23;20450;-82
2022/11/28 07:07:32;;;;;;;37.17;16.25;;;7.10;99.90;;;;;;6186918;23;20024;-82
2022/11/28 07:09:57;;;;;;;36.80;16.95;;;7.20;99.90;;;;;;6186326;23;20021;-82
2022/11/28 07:12:23;;;;;;;36.40;16.17;;;7.20;99.90;;;;;;6160193;23;20052;-82
2022/11/28 07:14:48;;;;;;;35.58;15.65;;;7.20;99.90;;;;;;6186803;23;20048;-82
2022/11/28 07:17:14;;;;;;;36.25;17.48;;;7.20;99.90;;;;;;6185785;23;20014;-82
2022/11/28 07:19:40;;;;;;;36.38;16.50;;;7.20;99.90;;;;;;6186741;23;20467;-81
2022/11/28 07:22:06;;;;;;;35.88;16.58;;;7.20;99.90;;;;;;6160006;23;20013;-82
2022/11/28 07:24:31;;;;;;;35.47;16.48;;;7.20;99.90;;;;;;6186689;23;20024;-81
2022/11/28 07:26:57;;;;;;;36.40;16.58;;;7.20;99.90;;;;;;6186256;23;20039;-82
2022/11/28 07:29:23;;;;;;;35.10;16.38;;;7.20;99.90;;;;;;6186604;23;20044;-81
2022/11/28 07:31:49;;;;;;;37.20;16.20;;;7.20;99.90;;;;;;6186616;23;20021;-83
2022/11/28 07:34:15;;;;;;;34.63;15.93;;;7.20;99.90;;;;;;6186494;23;20009;-82
2022/11/28 07:36:41;;;;;;;41.28;17.33;;;7.30;99.90;;;;;;6186034;23;20442;-82
2022/11/28 07:39:16;;;;;;;39.03;18.42;;;7.20;99.90;;;;;;6186053;23;20434;-82
2022/11/28 07:41:42;;;;;;;33.58;15.88;;;7.20;99.90;;;;;;6159587;23;20020;-82
2022/11/28 07:44:09;;;;;;;37.30;16.60;;;7.30;99.90;;;;;;6159265;23;20025;-82
2022/11/28 07:46:34;;;;;;;36.58;15.50;;;7.30;99.90;;;;;;6184889;23;20019;-82
2022/11/28 07:49:00;;;;;;;36.58;15.75;;;7.30;99.90;;;;;;6186348;23;20100;-82
2022/11/28 07:51:29;;;;;;;36.13;16.35;;;7.30;99.90;;;;;;6186344;23;20067;-82
2022/11/28 07:53:55;;;;;;;35.65;15.35;;;7.30;99.90;;;;;;6186040;23;20017;-82
2022/11/28 07:56:24;;;;;;;33.67;15.10;;;7.30;99.90;;;;;;6186081;23;20025;-82
2022/11/28 07:58:51;;;;;;;32.90;14.52;;;7.30;99.90;;;;;;6186033;23;20027;-82
2022/11/28 08:01:29;;;;;;;32.88;14.70;;;7.40;99.90;;;;;;6159734;23;20021;-82
2022/11/28 08:03:56;;;;;;;38.15;14.50;;;7.40;99.90;;;;;;6185925;23;20472;-82
2022/11/28 08:06:26;;;;;;;32.05;13.75;;;7.40;99.90;;;;;;6186201;23;20536;-83
2022/11/28 08:08:53;;;;;;;32.22;14.20;;;7.40;99.90;;;;;;6158493;23;20071;-82
2022/11/28 08:11:21;;;;;;;29.13;13.55;;;7.40;99.90;;;;;;6159240;23;20512;-82
2022/11/28 08:13:47;;;;;;;32.28;13.27;;;7.40;99.90;;;;;;6185798;23;20370;-82
2022/11/28 08:16:16;;;;;;;28.67;13.15;;;7.50;99.90;;;;;;6185472;23;20027;-82
2022/11/28 08:18:42;;;;;;;33.72;14.48;;;7.50;99.90;;;;;;6185636;23;20072;-81
2022/11/28 08:21:11;;;;;;;31.92;14.65;;;7.50;99.90;;;;;;6186122;23;20021;-82
2022/11/28 08:23:38;;;;;;;36.53;13.48;;;7.50;99.90;;;;;;6185632;23;20025;-82
2022/11/28 08:26:06;;;;;;;36.83;14.32;;;7.50;99.90;;;;;;6185927;23;20121;-82
2022/11/28 08:28:32;;;;;;;32.95;14.45;;;7.50;99.90;;;;;;6186842;23;20016;-82
2022/11/28 08:31:00;;;;;;;32.00;14.30;;;7.50;99.90;;;;;;6188039;23;20028;-82
2022/11/28 08:33:27;;;;;;;28.33;13.10;;;7.50;99.90;;;;;;6188059;23;20075;-82
2022/11/28 08:35:52;;;;;;;34.33;13.68;;;7.50;99.90;;;;;;6161379;23;20095;-82
2022/11/28 08:38:18;;;;;;;30.27;13.52;;;7.50;99.90;;;;;;6188260;23;20040;-83
2022/11/28 08:40:44;;;;;;;31.08;13.65;;;7.60;99.90;;;;;;6187766;23;20013;-82
2022/11/28 08:43:10;;;;;;;36.85;14.57;;;7.60;99.90;;;;;;6161348;23;20024;-82
2022/11/28 08:45:36;;;;;;;36.38;13.20;;;7.60;99.90;;;;;;6161294;23;20017;-82
2022/11/28 08:48:03;;;;;;;32.45;14.38;;;7.60;99.90;;;;;;6186733;23;20021;-82
2022/11/28 08:50:28;;;;;;;35.83;13.23;;;7.60;99.90;;;;;;6161034;23;20032;-82
2022/11/28 08:52:55;;;;;;;38.25;13.38;;;7.60;99.90;;;;;;6187478;23;20045;-83
2022/11/28 08:55:20;;;;;;;30.33;13.70;;;7.60;99.90;;;;;;6187329;23;20446;-84
2022/11/28 08:57:46;;;;;;;32.33;13.30;;;7.60;99.90;;;;;;6187449;23;20019;-83
2022/11/28 09:00:12;;;;;;;31.10;13.43;;;7.60;99.90;;;;;;6187341;23;20021;-80
2022/11/28 09:02:38;;;;;;;32.13;12.77;;;7.60;99.90;;;;;;6187540;23;20029;-83
2022/11/28 09:05:04;;;;;;;30.25;12.75;;;7.60;99.90;;;;;;6187693;23;20024;-82
2022/11/28 09:07:30;;;;;;;29.13;12.48;;;7.60;99.90;;;;;;6187100;23;20017;-82
2022/11/28 09:09:55;;;;;;;29.48;12.65;;;7.60;99.90;;;;;;6186977;23;20021;-82
2022/11/28 09:12:21;;;;;;;28.42;11.57;;;7.70;99.90;;;;;;6187360;23;20084;-83
2022/11/28 09:14:47;;;;;;;29.13;11.57;;;7.70;99.90;;;;;;6187563;23;20083;-82
2022/11/28 09:17:14;;;;;;;26.77;10.88;;;7.70;99.90;;;;;;6160823;23;20465;-83
2022/11/28 09:19:40;;;;;;;26.83;11.50;;;7.70;99.90;;;;;;6160911;23;20017;-83
2022/11/28 09:22:06;;;;;;;22.92;10.25;;;7.70;99.90;;;;;;6187600;23;20016;-83
2022/11/28 09:24:32;;;;;;;26.67;11.00;;;7.70;99.90;;;;;;6187162;23;20319;-83
2022/11/28 09:26:57;;;;;;;22.25;10.35;;;7.70;99.90;;;;;;6160726;23;20021;-83
2022/11/28 09:29:23;;;;;;;29.08;11.63;;;7.70;99.90;;;;;;6160569;23;20029;-83
2022/11/28 09:31:49;;;;;;;24.00;10.10;;;7.80;99.90;;;;;;6160866;23;20493;-83
2022/11/28 09:34:15;;;;;;;26.92;10.95;;;7.80;99.90;;;;;;6160716;23;20059;-82
2022/11/28 09:36:41;;;;;;;24.48;10.32;;;7.80;99.90;;;;;;6187372;23;20044;-84
2022/11/28 09:39:06;;;;;;;27.38;10.18;;;7.80;99.90;;;;;;6186943;23;20041;-82
2022/11/28 09:41:55;;;;;;;28.52;10.65;;;7.80;99.90;;;;;;6186890;23;20388;-82
2022/11/28 09:44:43;;;;;;;35.72;12.35;;;7.90;99.90;;;;;;6187109;23;20021;-83
2022/11/28 09:47:23;;;;;;;34.67;12.02;;;7.90;99.90;;;;;;6187280;23;20024;-84
2022/11/28 09:49:53;;;;;;;34.70;12.55;;;7.90;99.90;;;;;;6160602;23;20021;-83
2022/11/28 09:52:27;;;;;;;42.05;12.15;;;7.90;99.90;;;;;;6160555;23;20319;-83
2022/11/28 09:55:05;;;;;;;40.45;14.32;;;8.00;99.90;;;;;;6187247;23;20024;-84
2022/11/28 09:57:39;;;;;;;43.38;15.45;;;8.00;99.90;;;;;;6187185;23;20017;-84
2022/11/28 10:00:09;;;;;;;39.90;14.70;;;8.00;99.90;;;;;;6186996;23;20398;-84
2022/11/28 10:02:50;;;;;;;44.63;15.63;;;8.00;99.90;;;;;;6186777;23;20382;-84
2022/11/28 10:05:33;;;;;;;49.17;16.05;;;8.00;99.90;;;;;;6187098;23;20025;-84
2022/11/28 10:08:23;;;;;;;47.67;15.80;;;8.10;99.90;;;;;;6186842;23;20017;-83
2022/11/28 10:10:53;;;;;;;53.60;16.58;;;8.10;99.90;;;;;;6187061;23;20024;-84
2022/11/28 10:13:30;;;;;;;53.47;15.60;;;8.10;99.90;;;;;;6186998;23;20025;-83
2022/11/28 10:16:17;;;;;;;57.97;17.23;;;8.10;99.90;;;;;;6160306;23;20434;-82
2022/11/28 10:18:47;;;;;;;55.65;18.05;;;8.10;99.90;;;;;;6187038;23;20021;-84
2022/11/28 10:21:34;;;;;;;53.47;17.88;;;8.20;99.90;;;;;;6160460;23;20021;-84
2022/11/28 10:24:13;;;;;;;55.35;18.25;;;8.10;99.90;;;;;;6187064;23;20056;-85
2022/11/28 10:26:52;;;;;;;64.60;20.33;;;8.20;99.90;;;;;;6160330;23;20017;-84
2022/11/28 10:29:20;;;;;;;66.13;19.60;;;8.10;99.90;;;;;;6187275;23;20025;-84
2022/11/28 10:31:49;;;;;;;62.13;19.60;;;8.20;99.90;;;;;;6186816;23;20024;-84
2022/11/28 10:34:27;;;;;;;62.38;22.67;;;8.20;99.90;;;;;;6160186;23;20345;-85
2022/11/28 10:37:18;;;;;;;95.97;33.30;;;8.20;99.90;;;;;;6160120;23;20341;-84
2022/11/28 10:39:44;;;;;;;114.10;43.15;;;8.20;99.90;;;;;;6186504;23;20075;-85
2022/11/28 10:42:27;;;;;;;99.20;40.60;;;8.20;99.90;;;;;;6160111;23;20017;-85
2022/11/28 10:45:13;;;;;;;87.88;33.50;;;8.30;99.90;;;;;;6186928;23;20013;-84
2022/11/28 10:48:00;;;;;;;89.40;33.70;;;8.20;99.90;;;;;;6186798;23;20128;-84
2022/11/28 10:50:44;;;;;;;80.35;31.65;;;8.30;99.90;;;;;;6159941;23;20025;-84
2022/11/28 10:53:35;;;;;;;80.18;35.70;;;8.30;99.90;;;;;;6186467;23;20025;-84
2022/11/28 10:56:20;;;;;;;74.88;26.10;;;8.30;99.90;;;;;;6160105;23;20025;-84
2022/11/28 10:59:12;;;;;;;88.55;33.67;;;8.20;99.90;;;;;;6159941;23;20083;-82
2022/11/28 11:01:39;;;;;;;127.70;41.85;;;8.30;99.90;;;;;;6153164;23;20048;-82
2022/11/28 11:04:12;;;;;;;152.90;51.45;;;8.30;99.90;;;;;;6186604;23;20078;-82
2022/11/28 11:06:38;;;;;;;101.72;32.35;;;8.30;99.90;;;;;;6186736;23;20080;-82
2022/11/28 11:09:04;;;;;;;97.22;36.95;;;8.30;99.90;;;;;;6186425;23;20377;-83
2022/11/28 11:11:36;;;;;;;106.72;40.90;;;8.30;99.90;;;;;;6159741;23;20021;-87
2022/11/28 11:14:10;;;;;;;95.75;39.38;;;8.40;99.90;;;;;;6159889;23;20055;-84
2022/11/28 11:16:54;;;;;;;125.72;42.35;;;8.40;99.90;;;;;;6186190;23;20020;-84
2022/11/28 11:19:30;;;;;;;75.97;25.42;;;8.40;99.90;;;;;;6186023;23;20017;-84
2022/11/28 11:22:17;;;;;;;80.95;25.75;;;8.40;99.90;;;;;;6186410;23;20009;-86
2022/11/28 11:24:44;;;;;;;77.70;25.80;;;8.40;99.90;;;;;;6159813;23;20108;-84
2022/11/28 11:27:20;;;;;;;81.68;25.13;;;8.40;99.90;;;;;;6159801;23;20009;-84
2022/11/28 11:29:45;;;;;;;82.95;25.27;;;8.40;99.90;;;;;;6186015;23;20529;-84
2022/11/28 11:32:22;;;;;;;71.70;23.52;;;8.50;99.90;;;;;;6186298;23;20059;-85
2022/11/28 11:34:48;;;;;;;77.60;23.70;;;8.50;99.90;;;;;;6186589;23;20468;-93
2022/11/28 11:37:33;;;;;;;77.75;22.92;;;8.50;99.90;;;;;;6186313;23;20013;-84
2022/11/28 11:40:01;;;;;;;77.03;23.15;;;8.50;99.90;;;;;;6185923;23;20017;-85
2022/11/28 11:42:29;;;;;;;70.07;23.08;;;8.50;99.90;;;;;;6186286;23;20017;-85
2022/11/28 11:44:56;;;;;;;72.30;22.73;;;8.60;99.90;;;;;;6159497;23;20092;-84
2022/11/28 11:47:42;;;;;;;77.55;22.05;;;8.50;99.90;;;;;;6186191;23;20021;-84
2022/11/28 11:50:17;;;;;;;73.85;23.08;;;8.50;99.90;;;;;;6185661;23;20341;-84
2022/11/28 11:52:58;;;;;;;67.60;22.10;;;8.50;99.90;;;;;;6159557;23;20017;-88
2022/11/28 11:55:24;;;;;;;66.65;22.35;;;8.60;99.90;;;;;;6185792;23;20503;-82
2022/11/28 11:57:53;;;;;;;59.45;21.08;;;8.60;99.90;;;;;;6159476;23;20020;-82
2022/11/28 12:00:25;;;;;;;60.28;21.15;;;8.60;99.90;;;;;;6186085;23;20024;-81
2022/11/28 12:02:53;;;;;;;58.90;19.35;;;8.60;99.90;;;;;;6185789;23;20039;-85
2022/11/28 12:05:40;;;;;;;62.15;20.02;;;8.60;99.90;;;;;;6186026;23;20044;-86
2022/11/28 12:08:43;;;;;;;62.10;19.77;;;8.60;99.90;;;;;;6158242;23;20056;-88
2022/11/28 12:11:26;;;;;;;56.75;18.45;;;8.70;99.90;;;;;;6104290;23;20025;-85
2022/11/28 12:13:52;;;;;;;57.95;19.67;;;8.60;99.90;;;;;;6185750;23;20021;-88
2022/11/28 12:16:36;;;;;;;60.55;18.27;;;8.70;99.90;;;;;;6159091;23;20021;-86
2022/11/28 12:19:22;;;;;;;52.08;18.05;;;8.60;99.90;;;;;;6186087;23;20071;-82
2022/11/28 12:22:31;;;;;;;57.35;18.08;;;8.60;99.90;;;;;;6159759;23;20032;-87
2022/11/28 12:25:26;;;;;;;54.38;17.45;;;8.60;99.90;;;;;;6185714;23;20021;-80
2022/11/28 12:28:17;;;;;;;57.00;18.52;;;8.60;99.90;;;;;;6155560;23;20337;-85
2022/11/28 12:31:19;;;;;;;55.92;19.05;;;8.60;99.90;;;;;;6185770;23;20048;-86
2022/11/28 12:33:57;;;;;;;52.55;19.70;;;8.50;99.90;;;;;;6185997;23;20013;-85
2022/11/28 12:37:02;;;;;;;61.13;20.27;;;8.60;99.90;;;;;;6159321;23;20025;-84
2022/11/28 12:39:54;;;;;;;65.45;20.85;;;8.60;99.90;;;;;;6159355;23;20028;-84
2022/11/28 12:42:33;;;;;;;74.93;25.92;;;8.60;99.90;;;;;;6158858;23;20021;-85
2022/11/28 12:45:28;;;;;;;76.63;24.85;;;8.60;99.90;;;;;;6185725;23;20025;-85
2022/11/28 12:48:05;;;;;;;73.88;23.73;;;8.60;99.90;;;;;;6185823;23;20021;-83
2022/11/28 12:50:39;;;;;;;79.68;24.50;;;8.60;99.90;;;;;;6185618;23;20025;-85
2022/11/28 12:53:22;;;;;;;80.57;23.50;;;8.60;99.90;;;;;;6185853;23;20017;-86
2022/11/28 12:56:33;;;;;;;83.13;23.25;;;8.50;99.90;;;;;;6185450;23;20477;-85
2022/11/28 12:59:42;;;;;;;73.60;22.98;;;8.60;99.90;;;;;;6013174;23;20487;-84
2022/11/28 13:02:26;;;;;;;73.25;21.50;;;8.60;99.90;;;;;;6125309;23;20357;-86
2022/11/28 13:04:52;;;;;;;83.18;22.58;;;8.60;99.90;;;;;;6185851;23;20017;-86
2022/11/28 13:07:26;;;;;;;87.20;25.65;;;8.60;99.90;;;;;;6159107;23;20094;-84